sensor_id;sensor_type;location;lat;lon;timestamp;P1;durP1;ratioP1;P2;durP2;ratioP2
21416;SDS011;10869;52.238;10.716;2022-07-22T03:01:06;10.00;;;6.00;;
21416;SDS011;10869;52.238;10.716;2022-07-22T03:03:34;12.27;;;5.90;;
21416;SDS011;10869;52.238;10.716;2022-07-22T03:06:00;11.63;;;5.83;;
21416;SDS011;10869;52.238;10.716;2022-07-22T03:08:26;12.47;;;6.27;;
21416;SDS011;10869;52.238;10.716;2022-07-22T03:10:52;13.27;;;7.53;;
21416;SDS011;10869;52.238;10.716;2022-07-22T03:13:18;12.17;;;6.57;;
21416;SDS011;10869;52.238;10.716;2022-07-22T03:15:44;14.10;;;7.13;;
21416;SDS011;10869;52.238;10.716;2022-07-22T03:18:10;11.40;;;7.40;;
21416;SDS011;10869;52.238;10.716;2022-07-22T03:20:36;11.27;;;6.47;;
21416;SDS011;10869;52.238;10.716;2022-07-22T03:23:01;10.10;;;6.07;;
21416;SDS011;10869;52.238;10.716;2022-07-22T03:25:27;7.97;;;5.50;;
21416;SDS011;10869;52.238;10.716;2022-07-22T03:27:55;10.73;;;6.30;;
21416;SDS011;10869;52.238;10.716;2022-07-22T03:30:22;14.93;;;6.40;;
21416;SDS011;10869;52.238;10.716;2022-07-22T03:32:47;12.57;;;6.07;;
21416;SDS011;10869;52.238;10.716;2022-07-22T03:35:14;13.47;;;6.20;;
21416;SDS011;10869;52.238;10.716;2022-07-22T03:37:40;10.00;;;5.93;;
21416;SDS011;10869;52.238;10.716;2022-07-22T03:40:06;10.93;;;6.37;;
21416;SDS011;10869;52.238;10.716;2022-07-22T03:42:33;12.37;;;6.23;;
21416;SDS011;10869;52.238;10.716;2022-07-22T03:44:59;13.17;;;7.00;;
21416;SDS011;10869;52.238;10.716;2022-07-22T03:47:24;13.03;;;7.20;;
21416;SDS011;10869;52.238;10.716;2022-07-22T03:49:50;11.17;;;7.03;;
21416;SDS011;10869;52.238;10.716;2022-07-22T03:52:16;10.50;;;7.13;;
21416;SDS011;10869;52.238;10.716;2022-07-22T03:54:42;13.80;;;7.23;;
21416;SDS011;10869;52.238;10.716;2022-07-22T03:57:08;12.97;;;8.60;;
21416;SDS011;10869;52.238;10.716;2022-07-22T03:59:34;15.60;;;9.97;;
21416;SDS011;10869;52.238;10.716;2022-07-22T04:02:00;14.17;;;9.57;;
21416;SDS011;10869;52.238;10.716;2022-07-22T04:04:27;21.33;;;11.00;;
21416;SDS011;10869;52.238;10.716;2022-07-22T04:06:53;19.83;;;11.03;;
21416;SDS011;10869;52.238;10.716;2022-07-22T04:09:19;17.73;;;9.60;;
21416;SDS011;10869;52.238;10.716;2022-07-22T04:11:44;18.13;;;10.03;;
21416;SDS011;10869;52.238;10.716;2022-07-22T04:14:10;15.43;;;9.50;;
21416;SDS011;10869;52.238;10.716;2022-07-22T04:16:36;14.47;;;8.93;;
21416;SDS011;10869;52.238;10.716;2022-07-22T04:19:02;17.93;;;9.07;;
21416;SDS011;10869;52.238;10.716;2022-07-22T04:21:28;14.97;;;9.30;;
21416;SDS011;10869;52.238;10.716;2022-07-22T04:23:54;15.33;;;8.17;;
21416;SDS011;10869;52.238;10.716;2022-07-22T04:26:21;12.73;;;7.93;;
21416;SDS011;10869;52.238;10.716;2022-07-22T04:28:47;13.50;;;7.37;;
21416;SDS011;10869;52.238;10.716;2022-07-22T04:31:13;12.60;;;7.33;;
21416;SDS011;10869;52.238;10.716;2022-07-22T04:33:39;12.97;;;7.60;;
21416;SDS011;10869;52.238;10.716;2022-07-22T04:36:05;13.63;;;7.30;;
21416;SDS011;10869;52.238;10.716;2022-07-22T04:38:31;10.60;;;6.77;;
21416;SDS011;10869;52.238;10.716;2022-07-22T04:40:57;11.23;;;6.70;;
21416;SDS011;10869;52.238;10.716;2022-07-22T04:43:23;10.60;;;6.87;;
21416;SDS011;10869;52.238;10.716;2022-07-22T04:45:49;11.90;;;6.63;;
21416;SDS011;10869;52.238;10.716;2022-07-22T04:48:15;10.07;;;6.07;;
21416;SDS011;10869;52.238;10.716;2022-07-22T04:50:41;12.47;;;6.97;;
21416;SDS011;10869;52.238;10.716;2022-07-22T04:53:07;11.53;;;7.73;;
21416;SDS011;10869;52.238;10.716;2022-07-22T04:55:33;12.07;;;7.10;;
21416;SDS011;10869;52.238;10.716;2022-07-22T04:57:59;13.23;;;8.10;;
21416;SDS011;10869;52.238;10.716;2022-07-22T05:00:25;12.87;;;7.97;;
21416;SDS011;10869;52.238;10.716;2022-07-22T05:02:51;13.97;;;8.63;;
21416;SDS011;10869;52.238;10.716;2022-07-22T05:05:17;17.93;;;8.60;;
21416;SDS011;10869;52.238;10.716;2022-07-22T05:07:43;14.33;;;7.43;;
21416;SDS011;10869;52.238;10.716;2022-07-22T05:10:08;11.73;;;6.43;;
21416;SDS011;10869;52.238;10.716;2022-07-22T05:12:34;15.13;;;6.80;;
21416;SDS011;10869;52.238;10.716;2022-07-22T05:15:00;14.47;;;7.13;;
21416;SDS011;10869;52.238;10.716;2022-07-22T05:17:26;12.93;;;7.33;;
21416;SDS011;10869;52.238;10.716;2022-07-22T05:19:52;13.67;;;6.70;;
21416;SDS011;10869;52.238;10.716;2022-07-22T05:22:18;10.10;;;5.93;;
21416;SDS011;10869;52.238;10.716;2022-07-22T05:24:44;9.97;;;5.67;;
21416;SDS011;10869;52.238;10.716;2022-07-22T05:27:10;8.17;;;4.90;;
21416;SDS011;10869;52.238;10.716;2022-07-22T05:29:36;8.90;;;4.50;;
21416;SDS011;10869;52.238;10.716;2022-07-22T05:46:39;5.50;;;2.80;;
21416;SDS011;10869;52.238;10.716;2022-07-22T05:49:04;5.10;;;2.60;;
21416;SDS011;10869;52.238;10.716;2022-07-22T05:51:31;5.17;;;2.40;;
21416;SDS011;10869;52.238;10.716;2022-07-22T05:53:56;7.77;;;2.87;;
21416;SDS011;10869;52.238;10.716;2022-07-22T05:56:22;4.83;;;2.40;;
21416;SDS011;10869;52.238;10.716;2022-07-22T06:01:47;5.17;;;2.70;;
21416;SDS011;10869;52.238;10.716;2022-07-22T06:04:13;5.80;;;2.63;;
21416;SDS011;10869;52.238;10.716;2022-07-22T06:06:39;7.10;;;2.50;;
21416;SDS011;10869;52.238;10.716;2022-07-22T06:09:05;8.63;;;3.80;;
21416;SDS011;10869;52.238;10.716;2022-07-22T06:11:30;7.60;;;4.00;;
21416;SDS011;10869;52.238;10.716;2022-07-22T06:13:56;9.17;;;4.90;;
21416;SDS011;10869;52.238;10.716;2022-07-22T06:16:22;10.90;;;5.63;;
21416;SDS011;10869;52.238;10.716;2022-07-22T06:18:47;8.40;;;4.87;;
21416;SDS011;10869;52.238;10.716;2022-07-22T06:21:13;10.50;;;4.70;;
21416;SDS011;10869;52.238;10.716;2022-07-22T06:23:39;8.47;;;4.70;;
21416;SDS011;10869;52.238;10.716;2022-07-22T06:26:04;8.87;;;4.07;;
21416;SDS011;10869;52.238;10.716;2022-07-22T06:28:30;12.03;;;4.57;;
21416;SDS011;10869;52.238;10.716;2022-07-22T06:30:56;6.10;;;3.17;;
21416;SDS011;10869;52.238;10.716;2022-07-22T06:36:44;9.93;;;2.83;;
21416;SDS011;10869;52.238;10.716;2022-07-22T06:39:10;5.87;;;3.13;;
21416;SDS011;10869;52.238;10.716;2022-07-22T06:41:35;10.63;;;3.70;;
21416;SDS011;10869;52.238;10.716;2022-07-22T06:44:02;6.23;;;3.23;;
21416;SDS011;10869;52.238;10.716;2022-07-22T06:46:28;8.60;;;4.33;;
21416;SDS011;10869;52.238;10.716;2022-07-22T06:48:54;7.67;;;3.80;;
21416;SDS011;10869;52.238;10.716;2022-07-22T06:51:20;6.97;;;4.00;;
21416;SDS011;10869;52.238;10.716;2022-07-22T06:53:45;7.33;;;4.23;;
21416;SDS011;10869;52.238;10.716;2022-07-22T06:56:11;10.70;;;4.40;;
21416;SDS011;10869;52.238;10.716;2022-07-22T06:58:37;7.87;;;4.67;;
21416;SDS011;10869;52.238;10.716;2022-07-22T07:01:03;7.37;;;4.07;;
21416;SDS011;10869;52.238;10.716;2022-07-22T07:03:29;8.67;;;4.87;;
21416;SDS011;10869;52.238;10.716;2022-07-22T07:05:54;7.17;;;3.73;;
21416;SDS011;10869;52.238;10.716;2022-07-22T07:08:22;5.43;;;2.83;;
21416;SDS011;10869;52.238;10.716;2022-07-22T07:10:47;5.63;;;2.50;;
21416;SDS011;10869;52.238;10.716;2022-07-22T07:13:13;6.87;;;3.13;;
21416;SDS011;10869;52.238;10.716;2022-07-22T07:15:39;5.17;;;2.60;;
21416;SDS011;10869;52.238;10.716;2022-07-22T07:18:05;4.73;;;2.00;;
21416;SDS011;10869;52.238;10.716;2022-07-22T07:20:31;7.10;;;2.50;;
21416;SDS011;10869;52.238;10.716;2022-07-22T07:22:59;9.43;;;2.37;;
21416;SDS011;10869;52.238;10.716;2022-07-22T07:25:26;8.20;;;2.57;;
21416;SDS011;10869;52.238;10.716;2022-07-22T07:27:52;6.40;;;2.67;;
21416;SDS011;10869;52.238;10.716;2022-07-22T07:30:18;4.77;;;2.30;;
21416;SDS011;10869;52.238;10.716;2022-07-22T07:32:43;5.83;;;2.63;;
21416;SDS011;10869;52.238;10.716;2022-07-22T07:35:09;7.03;;;3.10;;
21416;SDS011;10869;52.238;10.716;2022-07-22T07:37:35;6.00;;;3.00;;
21416;SDS011;10869;52.238;10.716;2022-07-22T07:40:01;4.87;;;2.80;;
21416;SDS011;10869;52.238;10.716;2022-07-22T07:42:28;4.57;;;1.97;;
21416;SDS011;10869;52.238;10.716;2022-07-22T07:44:54;8.67;;;3.67;;
21416;SDS011;10869;52.238;10.716;2022-07-22T07:47:21;5.27;;;3.00;;
21416;SDS011;10869;52.238;10.716;2022-07-22T07:49:47;4.33;;;2.40;;
21416;SDS011;10869;52.238;10.716;2022-07-22T07:52:13;7.97;;;4.30;;
21416;SDS011;10869;52.238;10.716;2022-07-22T07:54:40;10.90;;;6.13;;
21416;SDS011;10869;52.238;10.716;2022-07-22T07:57:07;9.20;;;6.07;;
21416;SDS011;10869;52.238;10.716;2022-07-22T07:59:35;8.87;;;5.80;;
21416;SDS011;10869;52.238;10.716;2022-07-22T08:02:01;10.40;;;5.47;;
21416;SDS011;10869;52.238;10.716;2022-07-22T08:04:28;9.00;;;4.80;;
21416;SDS011;10869;52.238;10.716;2022-07-22T08:06:53;6.97;;;4.20;;
21416;SDS011;10869;52.238;10.716;2022-07-22T08:09:19;6.77;;;2.87;;
21416;SDS011;10869;52.238;10.716;2022-07-22T08:11:45;3.87;;;2.30;;
21416;SDS011;10869;52.238;10.716;2022-07-22T08:14:11;6.83;;;3.63;;
21416;SDS011;10869;52.238;10.716;2022-07-22T08:16:37;7.70;;;3.63;;
21416;SDS011;10869;52.238;10.716;2022-07-22T08:19:03;7.47;;;3.23;;
21416;SDS011;10869;52.238;10.716;2022-07-22T08:24:51;6.33;;;4.20;;
21416;SDS011;10869;52.238;10.716;2022-07-22T08:27:16;5.90;;;3.77;;
21416;SDS011;10869;52.238;10.716;2022-07-22T08:29:42;8.47;;;4.20;;
21416;SDS011;10869;52.238;10.716;2022-07-22T08:32:46;8.40;;;4.73;;
21416;SDS011;10869;52.238;10.716;2022-07-22T08:35:12;6.23;;;3.80;;
21416;SDS011;10869;52.238;10.716;2022-07-22T08:37:38;6.60;;;3.90;;
21416;SDS011;10869;52.238;10.716;2022-07-22T08:40:04;7.13;;;4.30;;
21416;SDS011;10869;52.238;10.716;2022-07-22T08:42:31;8.10;;;4.30;;
21416;SDS011;10869;52.238;10.716;2022-07-22T08:45:01;9.63;;;3.97;;
21416;SDS011;10869;52.238;10.716;2022-07-22T08:47:28;9.37;;;4.57;;
21416;SDS011;10869;52.238;10.716;2022-07-22T08:49:54;8.53;;;4.33;;
21416;SDS011;10869;52.238;10.716;2022-07-22T08:52:20;8.77;;;5.17;;
21416;SDS011;10869;52.238;10.716;2022-07-22T08:54:45;9.10;;;5.93;;
21416;SDS011;10869;52.238;10.716;2022-07-22T08:57:11;11.03;;;5.53;;
21416;SDS011;10869;52.238;10.716;2022-07-22T08:59:50;7.97;;;5.80;;
21416;SDS011;10869;52.238;10.716;2022-07-22T09:02:17;8.50;;;6.70;;
21416;SDS011;10869;52.238;10.716;2022-07-22T09:05:00;10.23;;;8.50;;
21416;SDS011;10869;52.238;10.716;2022-07-22T09:07:30;12.90;;;9.13;;
21416;SDS011;10869;52.238;10.716;2022-07-22T09:10:01;14.53;;;11.53;;
21416;SDS011;10869;52.238;10.716;2022-07-22T09:12:34;14.37;;;12.77;;
21416;SDS011;10869;52.238;10.716;2022-07-22T09:15:33;13.13;;;11.43;;
21416;SDS011;10869;52.238;10.716;2022-07-22T09:18:07;14.07;;;11.73;;
21416;SDS011;10869;52.238;10.716;2022-07-22T09:20:33;15.33;;;13.70;;
21416;SDS011;10869;52.238;10.716;2022-07-22T09:23:00;15.57;;;13.83;;
21416;SDS011;10869;52.238;10.716;2022-07-22T09:28:55;14.80;;;12.57;;
21416;SDS011;10869;52.238;10.716;2022-07-22T09:31:32;17.37;;;11.50;;
21416;SDS011;10869;52.238;10.716;2022-07-22T09:33:59;13.83;;;11.70;;
21416;SDS011;10869;52.238;10.716;2022-07-22T09:36:26;14.17;;;11.37;;
21416;SDS011;10869;52.238;10.716;2022-07-22T09:38:52;14.00;;;10.30;;
21416;SDS011;10869;52.238;10.716;2022-07-22T09:41:18;14.90;;;9.73;;
21416;SDS011;10869;52.238;10.716;2022-07-22T09:43:44;11.97;;;10.07;;
21416;SDS011;10869;52.238;10.716;2022-07-22T09:46:10;12.07;;;9.17;;
21416;SDS011;10869;52.238;10.716;2022-07-22T09:48:37;11.63;;;7.70;;
21416;SDS011;10869;52.238;10.716;2022-07-22T09:51:03;9.53;;;6.77;;
21416;SDS011;10869;52.238;10.716;2022-07-22T09:53:31;16.87;;;7.70;;
21416;SDS011;10869;52.238;10.716;2022-07-22T09:55:58;9.63;;;6.73;;
21416;SDS011;10869;52.238;10.716;2022-07-22T09:58:26;9.73;;;7.20;;
21416;SDS011;10869;52.238;10.716;2022-07-22T10:00:52;8.50;;;6.13;;
21416;SDS011;10869;52.238;10.716;2022-07-22T10:05:52;10.83;;;6.37;;
21416;SDS011;10869;52.238;10.716;2022-07-22T10:08:19;12.73;;;6.43;;
21416;SDS011;10869;52.238;10.716;2022-07-22T10:10:45;8.63;;;6.47;;
21416;SDS011;10869;52.238;10.716;2022-07-22T10:13:11;9.30;;;5.47;;
21416;SDS011;10869;52.238;10.716;2022-07-22T10:15:37;9.10;;;6.10;;
21416;SDS011;10869;52.238;10.716;2022-07-22T10:18:05;9.57;;;6.40;;
21416;SDS011;10869;52.238;10.716;2022-07-22T10:20:38;10.67;;;6.17;;
21416;SDS011;10869;52.238;10.716;2022-07-22T10:23:05;10.07;;;5.40;;
21416;SDS011;10869;52.238;10.716;2022-07-22T10:25:47;11.30;;;5.23;;
21416;SDS011;10869;52.238;10.716;2022-07-22T10:30:47;7.57;;;5.00;;
21416;SDS011;10869;52.238;10.716;2022-07-22T10:33:17;8.60;;;5.43;;
21416;SDS011;10869;52.238;10.716;2022-07-22T10:38:19;9.23;;;5.50;;
21416;SDS011;10869;52.238;10.716;2022-07-22T10:40:47;10.20;;;6.23;;
21416;SDS011;10869;52.238;10.716;2022-07-22T10:43:26;9.13;;;6.30;;
21416;SDS011;10869;52.238;10.716;2022-07-22T10:48:23;9.67;;;7.47;;
21416;SDS011;10869;52.238;10.716;2022-07-22T11:01:38;9.20;;;6.93;;
21416;SDS011;10869;52.238;10.716;2022-07-22T11:06:47;9.90;;;5.90;;
21416;SDS011;10869;52.238;10.716;2022-07-22T11:09:15;9.83;;;5.90;;
21416;SDS011;10869;52.238;10.716;2022-07-22T11:14:49;12.23;;;5.10;;
21416;SDS011;10869;52.238;10.716;2022-07-22T11:19:33;9.93;;;4.57;;
21416;SDS011;10869;52.238;10.716;2022-07-22T11:22:04;12.37;;;5.17;;
21416;SDS011;10869;52.238;10.716;2022-07-22T11:24:31;12.60;;;5.30;;
21416;SDS011;10869;52.238;10.716;2022-07-22T11:26:58;8.90;;;5.03;;
21416;SDS011;10869;52.238;10.716;2022-07-22T11:31:55;6.03;;;3.93;;
21416;SDS011;10869;52.238;10.716;2022-07-22T11:34:22;9.87;;;4.30;;
21416;SDS011;10869;52.238;10.716;2022-07-22T11:36:48;7.80;;;4.47;;
21416;SDS011;10869;52.238;10.716;2022-07-22T11:39:17;6.27;;;4.00;;
21416;SDS011;10869;52.238;10.716;2022-07-22T11:41:44;10.50;;;5.17;;
21416;SDS011;10869;52.238;10.716;2022-07-22T11:44:10;8.53;;;4.43;;
21416;SDS011;10869;52.238;10.716;2022-07-22T11:46:36;8.63;;;4.10;;
21416;SDS011;10869;52.238;10.716;2022-07-22T11:49:04;8.37;;;4.60;;
21416;SDS011;10869;52.238;10.716;2022-07-22T11:51:31;8.27;;;4.27;;
21416;SDS011;10869;52.238;10.716;2022-07-22T11:53:57;8.87;;;3.73;;
21416;SDS011;10869;52.238;10.716;2022-07-22T11:56:24;9.67;;;3.90;;
21416;SDS011;10869;52.238;10.716;2022-07-22T11:58:50;6.93;;;3.90;;
21416;SDS011;10869;52.238;10.716;2022-07-22T12:01:21;7.30;;;3.90;;
21416;SDS011;10869;52.238;10.716;2022-07-22T12:03:55;8.83;;;3.73;;
21416;SDS011;10869;52.238;10.716;2022-07-22T12:06:23;7.03;;;3.43;;
21416;SDS011;10869;52.238;10.716;2022-07-22T12:08:51;7.37;;;3.00;;
21416;SDS011;10869;52.238;10.716;2022-07-22T12:11:22;8.10;;;3.30;;
21416;SDS011;10869;52.238;10.716;2022-07-22T12:13:50;7.93;;;3.47;;
21416;SDS011;10869;52.238;10.716;2022-07-22T12:16:27;6.87;;;3.00;;
21416;SDS011;10869;52.238;10.716;2022-07-22T12:24:59;11.33;;;3.50;;
21416;SDS011;10869;52.238;10.716;2022-07-22T12:30:42;5.03;;;2.90;;
21416;SDS011;10869;52.238;10.716;2022-07-22T12:36:32;4.93;;;2.70;;
21416;SDS011;10869;52.238;10.716;2022-07-22T12:39:10;7.83;;;3.57;;
21416;SDS011;10869;52.238;10.716;2022-07-22T12:41:47;8.23;;;3.37;;
21416;SDS011;10869;52.238;10.716;2022-07-22T12:44:23;5.83;;;3.30;;
21416;SDS011;10869;52.238;10.716;2022-07-22T12:46:51;6.07;;;2.97;;
21416;SDS011;10869;52.238;10.716;2022-07-22T12:52:36;7.87;;;3.30;;
21416;SDS011;10869;52.238;10.716;2022-07-22T12:57:38;7.20;;;3.00;;
21416;SDS011;10869;52.238;10.716;2022-07-22T13:03:26;8.10;;;3.27;;
21416;SDS011;10869;52.238;10.716;2022-07-22T13:08:55;6.20;;;2.83;;
21416;SDS011;10869;52.238;10.716;2022-07-22T13:11:21;7.47;;;3.00;;
21416;SDS011;10869;52.238;10.716;2022-07-22T13:13:55;7.33;;;3.17;;
21416;SDS011;10869;52.238;10.716;2022-07-22T13:16:20;7.37;;;2.90;;
21416;SDS011;10869;52.238;10.716;2022-07-22T13:18:47;13.10;;;3.70;;
21416;SDS011;10869;52.238;10.716;2022-07-22T13:21:12;7.40;;;3.33;;
21416;SDS011;10869;52.238;10.716;2022-07-22T13:23:38;9.37;;;3.30;;
21416;SDS011;10869;52.238;10.716;2022-07-22T13:26:04;10.27;;;3.67;;
21416;SDS011;10869;52.238;10.716;2022-07-22T13:28:30;7.57;;;3.93;;
21416;SDS011;10869;52.238;10.716;2022-07-22T13:30:56;11.13;;;4.10;;
21416;SDS011;10869;52.238;10.716;2022-07-22T13:33:21;7.70;;;3.90;;
21416;SDS011;10869;52.238;10.716;2022-07-22T13:35:47;9.13;;;3.97;;
21416;SDS011;10869;52.238;10.716;2022-07-22T13:38:13;7.77;;;3.93;;
21416;SDS011;10869;52.238;10.716;2022-07-22T13:40:42;8.93;;;3.80;;
21416;SDS011;10869;52.238;10.716;2022-07-22T13:43:15;7.93;;;4.00;;
21416;SDS011;10869;52.238;10.716;2022-07-22T13:45:41;8.30;;;4.30;;
21416;SDS011;10869;52.238;10.716;2022-07-22T13:48:06;12.43;;;4.97;;
21416;SDS011;10869;52.238;10.716;2022-07-22T13:50:32;11.03;;;4.67;;
21416;SDS011;10869;52.238;10.716;2022-07-22T13:52:57;8.60;;;4.37;;
21416;SDS011;10869;52.238;10.716;2022-07-22T13:55:26;10.27;;;4.70;;
21416;SDS011;10869;52.238;10.716;2022-07-22T13:58:00;9.33;;;4.60;;
21416;SDS011;10869;52.238;10.716;2022-07-22T14:00:25;10.80;;;5.20;;
21416;SDS011;10869;52.238;10.716;2022-07-22T14:02:51;11.60;;;4.57;;
21416;SDS011;10869;52.238;10.716;2022-07-22T14:05:19;12.77;;;5.20;;
21416;SDS011;10869;52.238;10.716;2022-07-22T14:07:58;9.00;;;5.10;;
21416;SDS011;10869;52.238;10.716;2022-07-22T14:10:27;12.53;;;5.47;;
21416;SDS011;10869;52.238;10.716;2022-07-22T14:13:02;14.30;;;5.37;;
21416;SDS011;10869;52.238;10.716;2022-07-22T14:22:14;13.20;;;6.10;;
21416;SDS011;10869;52.238;10.716;2022-07-22T14:24:40;14.13;;;5.50;;
21416;SDS011;10869;52.238;10.716;2022-07-22T14:27:06;9.33;;;5.17;;
21416;SDS011;10869;52.238;10.716;2022-07-22T14:29:32;9.20;;;5.43;;
21416;SDS011;10869;52.238;10.716;2022-07-22T14:31:58;11.47;;;5.03;;
21416;SDS011;10869;52.238;10.716;2022-07-22T14:34:23;10.53;;;5.10;;
21416;SDS011;10869;52.238;10.716;2022-07-22T14:36:52;12.17;;;5.80;;
21416;SDS011;10869;52.238;10.716;2022-07-22T14:39:17;7.93;;;4.53;;
21416;SDS011;10869;52.238;10.716;2022-07-22T14:41:43;8.00;;;4.97;;
21416;SDS011;10869;52.238;10.716;2022-07-22T14:44:11;10.00;;;5.23;;
21416;SDS011;10869;52.238;10.716;2022-07-22T14:49:14;10.47;;;5.40;;
21416;SDS011;10869;52.238;10.716;2022-07-22T14:54:26;9.37;;;5.50;;
21416;SDS011;10869;52.238;10.716;2022-07-22T14:56:58;8.03;;;4.53;;
21416;SDS011;10869;52.238;10.716;2022-07-22T14:59:24;12.07;;;5.63;;
21416;SDS011;10869;52.238;10.716;2022-07-22T15:01:50;12.73;;;5.33;;
21416;SDS011;10869;52.238;10.716;2022-07-22T15:04:17;9.17;;;4.73;;
21416;SDS011;10869;52.238;10.716;2022-07-22T15:06:43;8.27;;;4.50;;
21416;SDS011;10869;52.238;10.716;2022-07-22T15:09:09;9.93;;;4.53;;
21416;SDS011;10869;52.238;10.716;2022-07-22T15:11:35;11.63;;;4.63;;
21416;SDS011;10869;52.238;10.716;2022-07-22T15:14:01;9.80;;;4.27;;
21416;SDS011;10869;52.238;10.716;2022-07-22T15:16:26;7.63;;;4.10;;
21416;SDS011;10869;52.238;10.716;2022-07-22T15:18:53;10.60;;;4.50;;
21416;SDS011;10869;52.238;10.716;2022-07-22T15:21:18;8.60;;;4.10;;
21416;SDS011;10869;52.238;10.716;2022-07-22T15:23:44;11.33;;;4.53;;
21416;SDS011;10869;52.238;10.716;2022-07-22T15:26:12;11.30;;;4.23;;
21416;SDS011;10869;52.238;10.716;2022-07-22T15:28:38;9.77;;;4.20;;
21416;SDS011;10869;52.238;10.716;2022-07-22T15:31:05;9.40;;;4.00;;
21416;SDS011;10869;52.238;10.716;2022-07-22T15:33:31;6.60;;;3.67;;
21416;SDS011;10869;52.238;10.716;2022-07-22T15:35:58;9.80;;;4.03;;
21416;SDS011;10869;52.238;10.716;2022-07-22T15:38:23;8.90;;;4.37;;
21416;SDS011;10869;52.238;10.716;2022-07-22T15:40:52;9.40;;;3.70;;
21416;SDS011;10869;52.238;10.716;2022-07-22T15:43:18;8.37;;;4.30;;
21416;SDS011;10869;52.238;10.716;2022-07-22T15:45:44;9.70;;;4.10;;
21416;SDS011;10869;52.238;10.716;2022-07-22T15:48:09;9.33;;;4.17;;
21416;SDS011;10869;52.238;10.716;2022-07-22T15:50:35;6.90;;;4.30;;
21416;SDS011;10869;52.238;10.716;2022-07-22T15:53:01;6.70;;;4.10;;
21416;SDS011;10869;52.238;10.716;2022-07-22T15:55:27;9.43;;;4.27;;
21416;SDS011;10869;52.238;10.716;2022-07-22T15:57:55;7.27;;;4.20;;
21416;SDS011;10869;52.238;10.716;2022-07-22T16:00:47;7.20;;;4.50;;
21416;SDS011;10869;52.238;10.716;2022-07-22T16:03:13;11.17;;;4.47;;
21416;SDS011;10869;52.238;10.716;2022-07-22T16:05:38;9.23;;;4.10;;
21416;SDS011;10869;52.238;10.716;2022-07-22T16:08:04;9.20;;;4.20;;
21416;SDS011;10869;52.238;10.716;2022-07-22T16:10:30;7.50;;;4.13;;
21416;SDS011;10869;52.238;10.716;2022-07-22T16:12:56;7.40;;;3.93;;
21416;SDS011;10869;52.238;10.716;2022-07-22T16:15:22;7.70;;;4.17;;
21416;SDS011;10869;52.238;10.716;2022-07-22T16:17:49;9.97;;;4.37;;
21416;SDS011;10869;52.238;10.716;2022-07-22T16:20:17;7.83;;;3.80;;
21416;SDS011;10869;52.238;10.716;2022-07-22T16:22:43;8.17;;;3.77;;
21416;SDS011;10869;52.238;10.716;2022-07-22T16:25:09;11.20;;;4.33;;
21416;SDS011;10869;52.238;10.716;2022-07-22T16:27:35;9.40;;;4.67;;
21416;SDS011;10869;52.238;10.716;2022-07-22T16:30:00;9.77;;;4.30;;
21416;SDS011;10869;52.238;10.716;2022-07-22T16:32:26;8.93;;;4.27;;
21416;SDS011;10869;52.238;10.716;2022-07-22T16:34:52;8.83;;;4.00;;
21416;SDS011;10869;52.238;10.716;2022-07-22T16:37:18;9.93;;;4.47;;
21416;SDS011;10869;52.238;10.716;2022-07-22T16:39:47;10.83;;;4.70;;
21416;SDS011;10869;52.238;10.716;2022-07-22T16:42:13;9.70;;;4.57;;
21416;SDS011;10869;52.238;10.716;2022-07-22T16:44:39;8.83;;;4.37;;
21416;SDS011;10869;52.238;10.716;2022-07-22T16:47:04;13.17;;;4.47;;
21416;SDS011;10869;52.238;10.716;2022-07-22T16:49:33;11.13;;;5.30;;
21416;SDS011;10869;52.238;10.716;2022-07-22T16:51:59;11.57;;;4.83;;
21416;SDS011;10869;52.238;10.716;2022-07-22T16:54:25;9.93;;;4.53;;
21416;SDS011;10869;52.238;10.716;2022-07-22T16:56:51;8.50;;;4.63;;
21416;SDS011;10869;52.238;10.716;2022-07-22T16:59:17;10.40;;;4.73;;
21416;SDS011;10869;52.238;10.716;2022-07-22T17:01:42;6.33;;;4.07;;
21416;SDS011;10869;52.238;10.716;2022-07-22T17:04:08;11.67;;;4.27;;
21416;SDS011;10869;52.238;10.716;2022-07-22T17:06:34;9.77;;;4.50;;
21416;SDS011;10869;52.238;10.716;2022-07-22T17:09:00;8.10;;;4.40;;
21416;SDS011;10869;52.238;10.716;2022-07-22T17:11:26;7.37;;;4.57;;
21416;SDS011;10869;52.238;10.716;2022-07-22T17:19:59;8.73;;;5.00;;
21416;SDS011;10869;52.238;10.716;2022-07-22T17:22:24;10.43;;;4.50;;
21416;SDS011;10869;52.238;10.716;2022-07-22T17:28:12;10.70;;;4.50;;
21416;SDS011;10869;52.238;10.716;2022-07-22T17:30:38;10.83;;;4.73;;
21416;SDS011;10869;52.238;10.716;2022-07-22T17:33:03;9.00;;;4.80;;
21416;SDS011;10869;52.238;10.716;2022-07-22T17:35:29;9.30;;;4.37;;
21416;SDS011;10869;52.238;10.716;2022-07-22T17:37:55;10.30;;;5.00;;
21416;SDS011;10869;52.238;10.716;2022-07-22T17:40:21;8.03;;;4.97;;
21416;SDS011;10869;52.238;10.716;2022-07-22T17:42:47;8.20;;;4.50;;
21416;SDS011;10869;52.238;10.716;2022-07-22T17:45:12;11.60;;;4.30;;
21416;SDS011;10869;52.238;10.716;2022-07-22T17:47:38;9.43;;;4.40;;
21416;SDS011;10869;52.238;10.716;2022-07-22T17:50:04;9.17;;;4.40;;
21416;SDS011;10869;52.238;10.716;2022-07-22T17:52:33;9.27;;;4.33;;
21416;SDS011;10869;52.238;10.716;2022-07-22T17:54:59;10.40;;;4.07;;
21416;SDS011;10869;52.238;10.716;2022-07-22T17:57:26;10.70;;;4.90;;
21416;SDS011;10869;52.238;10.716;2022-07-22T17:59:52;8.90;;;4.80;;
21416;SDS011;10869;52.238;10.716;2022-07-22T18:02:18;8.77;;;4.27;;
21416;SDS011;10869;52.238;10.716;2022-07-22T18:04:44;10.90;;;5.20;;
21416;SDS011;10869;52.238;10.716;2022-07-22T18:07:10;9.77;;;4.73;;
21416;SDS011;10869;52.238;10.716;2022-07-22T18:09:36;10.07;;;4.67;;
21416;SDS011;10869;52.238;10.716;2022-07-22T18:12:01;10.97;;;5.43;;
21416;SDS011;10869;52.238;10.716;2022-07-22T18:14:27;12.67;;;4.90;;
21416;SDS011;10869;52.238;10.716;2022-07-22T18:16:53;11.23;;;4.43;;
21416;SDS011;10869;52.238;10.716;2022-07-22T18:22:20;11.23;;;4.87;;
21416;SDS011;10869;52.238;10.716;2022-07-22T18:24:46;9.83;;;4.73;;
21416;SDS011;10869;52.238;10.716;2022-07-22T18:27:12;11.33;;;5.67;;
21416;SDS011;10869;52.238;10.716;2022-07-22T18:29:37;11.57;;;5.03;;
21416;SDS011;10869;52.238;10.716;2022-07-22T18:32:03;11.20;;;5.60;;
21416;SDS011;10869;52.238;10.716;2022-07-22T18:34:29;11.13;;;5.60;;
21416;SDS011;10869;52.238;10.716;2022-07-22T18:40:02;13.03;;;5.97;;
21416;SDS011;10869;52.238;10.716;2022-07-22T18:42:28;14.73;;;5.80;;
21416;SDS011;10869;52.238;10.716;2022-07-22T18:44:54;11.00;;;5.37;;
21416;SDS011;10869;52.238;10.716;2022-07-22T18:47:20;12.43;;;6.07;;
21416;SDS011;10869;52.238;10.716;2022-07-22T18:49:46;12.50;;;5.10;;
21416;SDS011;10869;52.238;10.716;2022-07-22T18:52:12;10.53;;;5.57;;
21416;SDS011;10869;52.238;10.716;2022-07-22T18:54:37;11.27;;;5.93;;
21416;SDS011;10869;52.238;10.716;2022-07-22T18:57:03;11.23;;;5.37;;
21416;SDS011;10869;52.238;10.716;2022-07-22T18:59:29;11.10;;;5.40;;
21416;SDS011;10869;52.238;10.716;2022-07-22T19:01:55;8.80;;;5.10;;
21416;SDS011;10869;52.238;10.716;2022-07-22T19:04:21;11.53;;;5.83;;
21416;SDS011;10869;52.238;10.716;2022-07-22T19:06:47;9.90;;;5.43;;
21416;SDS011;10869;52.238;10.716;2022-07-22T19:09:13;12.63;;;5.83;;
21416;SDS011;10869;52.238;10.716;2022-07-22T19:11:39;12.80;;;5.53;;
21416;SDS011;10869;52.238;10.716;2022-07-22T19:14:04;11.93;;;6.27;;
21416;SDS011;10869;52.238;10.716;2022-07-22T19:16:30;12.90;;;5.63;;
21416;SDS011;10869;52.238;10.716;2022-07-22T19:18:56;13.53;;;6.10;;